Hauptseite
METAR-TAF:

METAR-TAF

Flughäfen :

Peer, Belgien

Militärflugplatz Kleine Brogel

Breite: 51-10N, Länge: 005-28E, Höhe: 55 m

Beobachtung

Neuester Wetterbericht von vor 15 Minuten, um 06:37 UTC
Wind 2 kt aus unterschiedlichen Richtungen
Temperatur 15°C
Luftfeuchtigkeit 77%
Luftdruck 1013 hPa
Sichtweite: 7000 m

METAR: EBBL 220637Z AUTO VRB02KT 7000 NCD 15/11 Q1013 WHT

Zeit: 08:52 (06:52 UTC)

Prognose

Neuester Wetterbericht von vor 15 Stunden und 11 Minuten, um 15:41 UTC
Gültige Prognose vom 21 um 19 UTC bis 22 um 07 UTC
Wind 5 kt aus Ost
Sichtweite 10 km oder mehr
Aufgelockert bewölkt in der Höhe von 27000 ft
Übergehend zu
vom 21 um 23 UTC bis 22 um 01 UTC
Sichtweite: 6000 m
Zeitweise
vom 21 um 01 UTC bis 21 um 06 UTC
Sichtweite: 3000 m
feuchter Dunst

TAF: EBBL 211541Z 2119/2207 08005KT 9999 SCT270 BECMG 2123/2201 6000 TEMPO 2101/2106 3000 BR

Wetterbeobachtungen und Prognosen von mehr als 4000 Flughäfen (METAR und TAF Bericht).

Die verfügbaren Stationen werden durch gelbe und rote Markierungen auf der Karte dargestellt.

Führen Sie die Maus auf sie, um den Namen der Station zu sehen.

Darauf klicken, um die Beobachtung von Wetterbeobachtungen und Prognosen zu sehen.

Um die Karte zu ändern : klicken Sie auf den grünen Tasten mit einem schwarzen Kreuz Zum Vergrößern, auf den grünen Button mit einem Gedankenstrich zu verkleinern, oder auf die grünen Pfeile für benachbarte Karten.


METAR-TAF: